Time;durP1;ratioP1;P1;durP2;ratioP2;P2;SDS_P1;SDS_P2;PMS_P1;PMS_P2;Temp;Humidity;BMP_temperature;BMP_pressure;BME280_temperature;BME280_humidity;BME280_pressure;Samples;Min_cycle;Max_cycle;Signal;HPM_P1;HPM_P2
2022/03/29 00:01:40;;;;;;;48.00;31.15;;;;;;;;;;4996927;28;95913;-73
2022/03/29 00:04:06;;;;;;;51.20;31.48;;;;;;;;;;5000573;28;93587;-71
2022/03/29 00:06:33;;;;;;;53.35;30.92;;;;;;;;;;4998127;28;92329;-72
2022/03/29 00:08:59;;;;;;;52.55;31.60;;;;;;;;;;4997112;28;93657;-72
2022/03/29 00:11:26;;;;;;;51.67;30.63;;;;;;;;;;4996313;28;94213;-71
2022/03/29 00:13:52;;;;;;;55.47;31.50;;;;;;;;;;4996763;28;92249;-72
2022/03/29 00:16:19;;;;;;;54.25;31.80;;;;;;;;;;4997553;28;93585;-72
2022/03/29 00:18:50;;;;;;;56.55;32.08;;;;;;;;;;4999702;28;93386;-74
2022/03/29 00:21:16;;;;;;;54.75;32.45;;;;;;;;;;4996691;28;93424;-73
2022/03/29 00:23:43;;;;;;;66.38;32.95;;;;;;;;;;4994095;28;95869;-73
2022/03/29 00:26:09;;;;;;;64.22;33.35;;;;;;;;;;4996205;28;92320;-73
2022/03/29 00:28:35;;;;;;;54.58;31.83;;;;;;;;;;4996771;28;93548;-72
2022/03/29 00:31:02;;;;;;;71.00;34.05;;;;;;;;;;4995128;28;96311;-73
2022/03/29 00:33:28;;;;;;;66.40;33.22;;;;;;;;;;4996631;28;92357;-73
2022/03/29 00:35:54;;;;;;;66.55;32.05;;;;;;;;;;4996496;28;93582;-73
2022/03/29 00:38:21;;;;;;;64.60;33.78;;;;;;;;;;4996400;28;93592;-73
2022/03/29 00:40:47;;;;;;;63.35;33.58;;;;;;;;;;4999143;28;92608;-73
2022/03/29 00:43:14;;;;;;;62.30;33.15;;;;;;;;;;4996324;28;93636;-73
2022/03/29 00:45:40;;;;;;;63.85;32.40;;;;;;;;;;4996129;28;92152;-73
2022/03/29 00:48:08;;;;;;;88.18;34.10;;;;;;;;;;4994543;28;94662;-73
2022/03/29 00:50:35;;;;;;;70.97;35.35;;;;;;;;;;4996221;28;93398;-73
2022/03/29 00:53:04;;;;;;;66.55;35.15;;;;;;;;;;4995031;28;92358;-73
2022/03/29 00:55:31;;;;;;;72.00;34.00;;;;;;;;;;4995036;28;93518;-73
2022/03/29 00:57:58;;;;;;;72.40;34.90;;;;;;;;;;4996912;28;93561;-73
2022/03/29 01:00:24;;;;;;;93.50;33.90;;;;;;;;;;5005996;28;92381;-73
2022/03/29 01:02:51;;;;;;;92.70;36.67;;;;;;;;;;5002497;28;93673;-72
2022/03/29 01:05:18;;;;;;;70.70;33.33;;;;;;;;;;5003333;28;91628;-73
2022/03/29 01:07:44;;;;;;;70.70;34.03;;;;;;;;;;5002471;28;93140;-74
2022/03/29 01:10:11;;;;;;;109.55;32.80;;;;;;;;;;5002630;28;94046;-73
2022/03/29 01:12:38;;;;;;;63.72;33.60;;;;;;;;;;5001123;28;94744;-73
2022/03/29 01:15:08;;;;;;;76.15;35.45;;;;;;;;;;5002509;28;95844;-73
2022/03/29 01:17:40;;;;;;;93.28;35.03;;;;;;;;;;5002544;28;93663;-73
2022/03/29 01:20:16;;;;;;;98.28;34.42;;;;;;;;;;5002293;28;92375;-73
2022/03/29 01:22:46;;;;;;;93.07;35.28;;;;;;;;;;5005523;28;93457;-73
2022/03/29 01:25:17;;;;;;;86.63;34.90;;;;;;;;;;5002270;28;92165;-74
2022/03/29 01:27:46;;;;;;;78.63;35.30;;;;;;;;;;5002401;28;93462;-73
2022/03/29 01:30:13;;;;;;;102.93;36.95;;;;;;;;;;5002475;28;93857;-73
2022/03/29 01:32:40;;;;;;;80.18;35.63;;;;;;;;;;5002434;28;93147;-73
2022/03/29 01:35:08;;;;;;;78.43;32.42;;;;;;;;;;5000589;28;94550;-73
2022/03/29 01:37:34;;;;;;;78.53;35.45;;;;;;;;;;4995913;28;95953;-73
2022/03/29 01:40:05;;;;;;;76.38;33.58;;;;;;;;;;4999991;28;93899;-73
2022/03/29 01:42:31;;;;;;;95.93;33.05;;;;;;;;;;5002543;28;93929;-73
2022/03/29 01:44:57;;;;;;;170.38;36.72;;;;;;;;;;5005418;28;92309;-72
2022/03/29 01:47:24;;;;;;;131.55;34.78;;;;;;;;;;5002345;28;93601;-73
2022/03/29 01:49:50;;;;;;;110.22;33.95;;;;;;;;;;5002263;28;93561;-73
2022/03/29 01:52:17;;;;;;;128.88;35.55;;;;;;;;;;5001875;28;92342;-73
2022/03/29 01:54:43;;;;;;;78.80;33.63;;;;;;;;;;5001880;28;93436;-74
2022/03/29 01:57:10;;;;;;;126.65;33.10;;;;;;;;;;5002012;28;93549;-74
2022/03/29 02:02:25;;;;;;;109.47;32.70;;;;;;;;;;5000367;28;94716;-74
2022/03/29 02:04:52;;;;;;;115.53;31.92;;;;;;;;;;5001519;28;93541;-73
2022/03/29 02:07:19;;;;;;;81.90;34.05;;;;;;;;;;5005138;28;92357;-74
2022/03/29 02:09:45;;;;;;;190.15;36.95;;;;;;;;;;4999611;28;94644;-73
2022/03/29 02:12:12;;;;;;;159.18;33.92;;;;;;;;;;5014406;28;93064;-74
2022/03/29 02:14:39;;;;;;;119.70;32.20;;;;;;;;;;5000725;28;93225;-72
2022/03/29 02:17:06;;;;;;;180.93;32.05;;;;;;;;;;5002193;28;93674;-72
2022/03/29 02:19:32;;;;;;;105.80;31.92;;;;;;;;;;4999096;28;91568;-73
2022/03/29 02:21:58;;;;;;;266.65;37.40;;;;;;;;;;4998812;28;92657;-73
2022/03/29 02:24:25;;;;;;;100.88;31.42;;;;;;;;;;4998592;28;92884;-72
2022/03/29 02:26:51;;;;;;;131.77;33.08;;;;;;;;;;4996893;28;94727;-73
2022/03/29 02:29:17;;;;;;;188.38;32.30;;;;;;;;;;5001317;28;95904;-72
2022/03/29 02:31:44;;;;;;;84.28;31.75;;;;;;;;;;4998380;28;92142;-72
2022/03/29 02:34:10;;;;;;;212.70;32.53;;;;;;;;;;4997638;28;93683;-72
2022/03/29 02:36:36;;;;;;;87.15;28.83;;;;;;;;;;4998131;28;94890;-72
2022/03/29 02:39:03;;;;;;;169.60;30.98;;;;;;;;;;4997890;28;92271;-73
2022/03/29 02:41:29;;;;;;;139.80;30.98;;;;;;;;;;4998155;28;93529;-74
2022/03/29 02:43:55;;;;;;;132.43;31.83;;;;;;;;;;4998197;28;93720;-73
2022/03/29 02:46:22;;;;;;;107.43;30.63;;;;;;;;;;4997738;28;92405;-74
2022/03/29 02:48:48;;;;;;;253.63;32.20;;;;;;;;;;5000851;28;93536;-73
2022/03/29 02:51:17;;;;;;;129.90;32.17;;;;;;;;;;4996436;28;94694;-73
2022/03/29 02:53:43;;;;;;;181.18;32.20;;;;;;;;;;4997794;28;95807;-73
2022/03/29 02:56:10;;;;;;;162.65;30.13;;;;;;;;;;4997935;28;93572;-72
2022/03/29 02:58:36;;;;;;;223.82;32.03;;;;;;;;;;4998021;28;92142;-73
2022/03/29 03:01:02;;;;;;;132.32;30.35;;;;;;;;;;4997602;28;93744;-74
2022/03/29 03:03:31;;;;;;;174.00;30.08;;;;;;;;;;4997534;28;93829;-73
2022/03/29 03:05:58;;;;;;;227.00;33.03;;;;;;;;;;4998034;28;92215;-72
2022/03/29 03:08:24;;;;;;;132.50;28.95;;;;;;;;;;4998324;28;92823;-72
2022/03/29 03:10:50;;;;;;;176.32;30.85;;;;;;;;;;5000966;28;92829;-74
2022/03/29 03:13:17;;;;;;;203.27;31.95;;;;;;;;;;4997560;28;93240;-73
2022/03/29 03:15:43;;;;;;;166.65;29.20;;;;;;;;;;4995358;28;95856;-73
2022/03/29 03:18:09;;;;;;;198.27;31.40;;;;;;;;;;4997613;28;92164;-74
2022/03/29 03:20:36;;;;;;;183.60;29.85;;;;;;;;;;4997525;28;93337;-72
2022/03/29 03:23:02;;;;;;;118.85;27.27;;;;;;;;;;5012685;28;93891;-73
2022/03/29 03:25:28;;;;;;;179.13;30.23;;;;;;;;;;4997489;28;92290;-74
2022/03/29 03:27:55;;;;;;;184.45;32.00;;;;;;;;;;4997454;28;93371;-72
2022/03/29 03:30:21;;;;;;;84.68;30.70;;;;;;;;;;4996652;28;93591;-73
2022/03/29 03:32:48;;;;;;;170.85;30.52;;;;;;;;;;5000928;28;91416;-73
2022/03/29 03:35:17;;;;;;;173.35;31.13;;;;;;;;;;4997299;28;94134;-72
2022/03/29 03:37:43;;;;;;;81.32;29.35;;;;;;;;;;4997263;28;92251;-72
2022/03/29 03:40:10;;;;;;;80.93;30.30;;;;;;;;;;4995823;28;94764;-73
2022/03/29 03:42:37;;;;;;;96.47;29.70;;;;;;;;;;4997215;28;92132;-73
2022/03/29 03:45:05;;;;;;;86.15;29.00;;;;;;;;;;4997000;28;92445;-72
2022/03/29 03:47:32;;;;;;;102.82;30.15;;;;;;;;;;5012222;28;92411;-73
2022/03/29 03:49:59;;;;;;;159.75;30.40;;;;;;;;;;4996916;28;93791;-73
2022/03/29 03:52:25;;;;;;;82.32;29.10;;;;;;;;;;4996903;28;92331;-73
2022/03/29 03:54:52;;;;;;;86.38;26.35;;;;;;;;;;5000031;28;93671;-72
2022/03/29 03:57:19;;;;;;;97.80;26.23;;;;;;;;;;4997571;28;91587;-73
2022/03/29 03:59:48;;;;;;;64.65;27.15;;;;;;;;;;4996969;28;92306;-72
2022/03/29 04:02:14;;;;;;;71.82;27.23;;;;;;;;;;4996777;28;93395;-73
2022/03/29 04:04:41;;;;;;;64.93;26.40;;;;;;;;;;4995285;28;94889;-72
2022/03/29 04:07:07;;;;;;;90.53;27.95;;;;;;;;;;4996775;28;95782;-72
2022/03/29 04:09:38;;;;;;;102.50;25.92;;;;;;;;;;4996679;28;93603;-72
2022/03/29 04:12:05;;;;;;;76.80;26.63;;;;;;;;;;4996602;28;92348;-73
2022/03/29 04:14:32;;;;;;;65.50;28.25;;;;;;;;;;4996774;28;93574;-72
2022/03/29 04:16:58;;;;;;;81.72;29.20;;;;;;;;;;4999640;28;93403;-72
2022/03/29 04:19:24;;;;;;;82.28;27.58;;;;;;;;;;4996839;28;93515;-72
2022/03/29 04:21:51;;;;;;;82.32;27.67;;;;;;;;;;4996848;28;93914;-72
2022/03/29 04:24:17;;;;;;;131.35;28.52;;;;;;;;;;4996864;28;92337;-72
2022/03/29 04:26:44;;;;;;;79.88;26.88;;;;;;;;;;5000152;28;93512;-72
2022/03/29 04:29:10;;;;;;;117.85;28.73;;;;;;;;;;4996519;28;95616;-72
2022/03/29 04:31:36;;;;;;;134.27;28.55;;;;;;;;;;4996552;28;92284;-72
2022/03/29 04:34:05;;;;;;;63.67;28.50;;;;;;;;;;4995781;28;93621;-72
2022/03/29 04:36:31;;;;;;;77.95;28.25;;;;;;;;;;4996465;28;93716;-73
2022/03/29 04:38:58;;;;;;;83.32;27.63;;;;;;;;;;4999518;28;92327;-72
2022/03/29 04:41:24;;;;;;;57.38;28.05;;;;;;;;;;4994565;28;94612;-73
2022/03/29 04:43:56;;;;;;;89.25;26.73;;;;;;;;;;4996323;28;92268;-72
2022/03/29 04:46:22;;;;;;;51.42;26.13;;;;;;;;;;4996488;28;92983;-71
2022/03/29 04:48:50;;;;;;;72.43;27.30;;;;;;;;;;4996130;28;93135;-71
2022/03/29 04:51:16;;;;;;;66.10;26.67;;;;;;;;;;4996219;28;92843;-71
2022/03/29 04:53:42;;;;;;;60.47;25.92;;;;;;;;;;4994377;28;94730;-72
2022/03/29 04:56:09;;;;;;;56.88;26.90;;;;;;;;;;4996223;28;93663;-71
2022/03/29 04:58:35;;;;;;;57.03;26.92;;;;;;;;;;4999429;28;92184;-71
2022/03/29 05:01:03;;;;;;;69.68;28.08;;;;;;;;;;4996017;28;93404;-70
2022/03/29 05:03:33;;;;;;;51.30;26.63;;;;;;;;;;4996103;28;92264;-73
2022/03/29 05:06:00;;;;;;;99.43;27.42;;;;;;;;;;4996058;28;93350;-73
2022/03/29 05:08:26;;;;;;;71.53;27.67;;;;;;;;;;4995290;28;93924;-73
2022/03/29 05:10:52;;;;;;;72.47;28.05;;;;;;;;;;4996653;28;91419;-73
2022/03/29 05:13:19;;;;;;;103.30;28.40;;;;;;;;;;4996062;28;92492;-73
2022/03/29 05:15:45;;;;;;;63.92;27.83;;;;;;;;;;4995782;28;92256;-73
2022/03/29 05:18:12;;;;;;;88.35;28.48;;;;;;;;;;4993939;28;94819;-72
2022/03/29 05:20:38;;;;;;;61.53;28.35;;;;;;;;;;4998379;28;96479;-72
2022/03/29 05:23:06;;;;;;;59.20;27.50;;;;;;;;;;4995408;28;92639;-72
2022/03/29 05:25:34;;;;;;;60.70;26.60;;;;;;;;;;4995735;28;93397;-73
2022/03/29 05:28:01;;;;;;;60.40;26.45;;;;;;;;;;4995861;28;94104;-72
2022/03/29 05:30:28;;;;;;;50.75;26.05;;;;;;;;;;4995758;28;92351;-73
2022/03/29 05:32:57;;;;;;;57.72;27.85;;;;;;;;;;4995700;28;93611;-73
2022/03/29 05:35:29;;;;;;;53.08;26.40;;;;;;;;;;4995955;28;91944;-73
2022/03/29 05:37:57;;;;;;;67.80;27.23;;;;;;;;;;4995501;28;92285;-72
2022/03/29 05:40:24;;;;;;;64.07;27.33;;;;;;;;;;4995475;28;92876;-73
2022/03/29 05:42:52;;;;;;;64.40;28.63;;;;;;;;;;4997089;28;95390;-71
2022/03/29 05:45:19;;;;;;;53.15;25.52;;;;;;;;;;4996068;28;95234;-71
2022/03/29 05:50:31;;;;;;;66.97;25.88;;;;;;;;;;4999023;28;92239;-72
2022/03/29 05:52:58;;;;;;;54.63;27.02;;;;;;;;;;4997962;28;93599;-71
2022/03/29 05:55:25;;;;;;;62.72;27.70;;;;;;;;;;4998869;28;92443;-73
2022/03/29 05:57:52;;;;;;;61.03;28.27;;;;;;;;;;4998835;28;92362;-72
2022/03/29 06:00:18;;;;;;;58.65;28.20;;;;;;;;;;4997858;28;94624;-73
2022/03/29 06:02:45;;;;;;;64.68;29.05;;;;;;;;;;4998081;28;93663;-72
2022/03/29 06:05:11;;;;;;;64.82;28.35;;;;;;;;;;5001770;28;92283;-72
2022/03/29 06:07:38;;;;;;;56.00;27.77;;;;;;;;;;4996927;28;96120;-73
2022/03/29 06:10:05;;;;;;;64.90;28.60;;;;;;;;;;4998631;28;92404;-71
2022/03/29 06:12:33;;;;;;;67.63;29.85;;;;;;;;;;4998667;28;93469;-72
2022/03/29 06:15:03;;;;;;;61.28;29.20;;;;;;;;;;4998332;28;93470;-71
2022/03/29 06:17:29;;;;;;;62.75;28.92;;;;;;;;;;4998592;28;92350;-72
2022/03/29 06:19:55;;;;;;;66.00;28.42;;;;;;;;;;4998432;28;93695;-72
2022/03/29 06:22:22;;;;;;;63.38;28.38;;;;;;;;;;4998489;28;93703;-71
2022/03/29 06:24:50;;;;;;;65.10;28.45;;;;;;;;;;4998560;28;91524;-72
2022/03/29 06:27:16;;;;;;;71.10;29.90;;;;;;;;;;5001399;28;92195;-72
2022/03/29 06:29:42;;;;;;;60.42;27.60;;;;;;;;;;4998031;28;93242;-72
2022/03/29 06:32:14;;;;;;;52.90;26.95;;;;;;;;;;4996979;28;94640;-71
2022/03/29 06:34:41;;;;;;;46.90;25.30;;;;;;;;;;4998226;28;93605;-71
2022/03/29 06:37:09;;;;;;;52.72;26.83;;;;;;;;;;5000398;28;92210;-72
2022/03/29 06:39:36;;;;;;;46.97;25.67;;;;;;;;;;5001547;28;92553;-71
2022/03/29 06:42:02;;;;;;;54.10;26.50;;;;;;;;;;4998317;28;94676;-72
2022/03/29 06:44:33;;;;;;;53.25;26.48;;;;;;;;;;4997917;28;92350;-71
2022/03/29 06:47:00;;;;;;;56.45;27.80;;;;;;;;;;4997876;28;93534;-71
2022/03/29 06:49:26;;;;;;;48.78;26.95;;;;;;;;;;5001619;28;92932;-72
2022/03/29 06:51:52;;;;;;;48.63;26.05;;;;;;;;;;4998082;28;92777;-74
2022/03/29 06:54:19;;;;;;;53.90;27.10;;;;;;;;;;4997899;28;92640;-73
2022/03/29 06:56:45;;;;;;;52.13;27.25;;;;;;;;;;4995677;28;94765;-72
2022/03/29 06:59:11;;;;;;;49.08;26.42;;;;;;;;;;4997755;28;95877;-73
2022/03/29 07:01:38;;;;;;;51.83;26.35;;;;;;;;;;4997521;28;93987;-72
2022/03/29 07:04:07;;;;;;;53.22;26.13;;;;;;;;;;4998010;28;93251;-72
2022/03/29 07:06:34;;;;;;;44.70;24.77;;;;;;;;;;4997580;28;93847;-71
2022/03/29 07:12:01;;;;;;;53.75;26.13;;;;;;;;;;4997807;28;93665;-73
2022/03/29 07:14:28;;;;;;;56.13;26.65;;;;;;;;;;4997977;28;92972;-73
2022/03/29 07:16:54;;;;;;;45.80;24.98;;;;;;;;;;4997497;28;94870;-74
2022/03/29 07:19:23;;;;;;;47.90;26.33;;;;;;;;;;4997434;28;94436;-73
2022/03/29 07:21:51;;;;;;;46.95;25.63;;;;;;;;;;4995514;28;95723;-73
2022/03/29 07:24:18;;;;;;;48.30;26.15;;;;;;;;;;4997461;28;92406;-74
2022/03/29 07:26:44;;;;;;;46.30;25.98;;;;;;;;;;5012881;28;93477;-71
2022/03/29 07:29:15;;;;;;;52.10;26.95;;;;;;;;;;4997430;28;93837;-71
2022/03/29 07:31:42;;;;;;;51.15;25.60;;;;;;;;;;5000651;28;92224;-72
2022/03/29 07:34:08;;;;;;;51.78;27.27;;;;;;;;;;4997376;28;92922;-74
2022/03/29 07:36:35;;;;;;;48.92;26.50;;;;;;;;;;4997542;28;92313;-71
2022/03/29 07:39:01;;;;;;;53.85;26.42;;;;;;;;;;4997821;28;93845;-70
2022/03/29 07:41:28;;;;;;;49.60;27.23;;;;;;;;;;4996939;28;94412;-70
2022/03/29 07:43:54;;;;;;;51.17;27.27;;;;;;;;;;4997325;28;92279;-71
2022/03/29 07:46:21;;;;;;;47.58;26.33;;;;;;;;;;4995527;28;94706;-70
2022/03/29 07:48:47;;;;;;;45.42;26.70;;;;;;;;;;4996970;28;93668;-71
2022/03/29 07:51:35;;;;;;;56.53;27.33;;;;;;;;;;4996787;28;92326;-71
2022/03/29 07:54:03;;;;;;;56.13;27.42;;;;;;;;;;4999616;28;94625;-74
2022/03/29 07:56:29;;;;;;;46.10;26.67;;;;;;;;;;4997143;28;92410;-72
2022/03/29 07:58:56;;;;;;;49.00;27.20;;;;;;;;;;4995797;28;93535;-72
2022/03/29 08:01:22;;;;;;;53.63;27.58;;;;;;;;;;4996772;28;93661;-71
2022/03/29 08:03:49;;;;;;;44.70;26.98;;;;;;;;;;4996866;28;91600;-69
2022/03/29 08:06:15;;;;;;;49.17;27.98;;;;;;;;;;4996872;28;92327;-72
2022/03/29 08:08:42;;;;;;;45.58;25.90;;;;;;;;;;4995593;28;93041;-71
2022/03/29 08:11:08;;;;;;;48.92;27.60;;;;;;;;;;4995111;28;94769;-71
2022/03/29 08:13:35;;;;;;;59.85;28.27;;;;;;;;;;4996533;28;95958;-74
2022/03/29 08:16:02;;;;;;;54.53;28.80;;;;;;;;;;4999426;28;93300;-69
2022/03/29 08:18:29;;;;;;;48.70;27.45;;;;;;;;;;4996690;28;93291;-70
2022/03/29 08:20:56;;;;;;;52.03;28.23;;;;;;;;;;4996483;28;93845;-72
2022/03/29 08:23:22;;;;;;;51.63;27.63;;;;;;;;;;4996854;28;92387;-73
2022/03/29 08:25:49;;;;;;;60.92;29.25;;;;;;;;;;4995343;28;94361;-74
2022/03/29 08:28:16;;;;;;;47.03;28.83;;;;;;;;;;4997156;28;93060;-73
2022/03/29 08:30:43;;;;;;;51.05;28.63;;;;;;;;;;4995998;28;94434;-74
2022/03/29 08:33:09;;;;;;;49.03;29.13;;;;;;;;;;4996562;28;93270;-74
2022/03/29 08:35:39;;;;;;;53.20;30.00;;;;;;;;;;4994752;28;96529;-74
2022/03/29 08:38:06;;;;;;;47.30;27.83;;;;;;;;;;4999032;28;92351;-73
2022/03/29 08:40:57;;;;;;;56.05;28.75;;;;;;;;;;4995729;28;94316;-73
2022/03/29 08:43:26;;;;;;;52.90;26.77;;;;;;;;;;4996026;28;92612;-74
2022/03/29 08:45:53;;;;;;;53.88;29.00;;;;;;;;;;4996931;28;93751;-72
2022/03/29 08:48:26;;;;;;;51.80;27.88;;;;;;;;;;4997932;28;93861;-72
2022/03/29 08:50:54;;;;;;;45.50;27.60;;;;;;;;;;4996252;28;92284;-72
2022/03/29 08:53:44;;;;;;;49.80;26.13;;;;;;;;;;4996335;28;93647;-72
2022/03/29 08:56:10;;;;;;;47.03;27.25;;;;;;;;;;4996141;28;93780;-72
2022/03/29 08:58:36;;;;;;;45.05;26.35;;;;;;;;;;4996373;28;92238;-71
2022/03/29 09:01:03;;;;;;;332.40;207.23;;;;;;;;;;4996464;28;94688;-72
2022/03/29 09:03:34;;;;;;;45.83;27.50;;;;;;;;;;5010292;28;93439;-73
2022/03/29 09:06:05;;;;;;;43.85;24.75;;;;;;;;;;4996056;28;93361;-72
2022/03/29 09:08:40;;;;;;;37.70;23.60;;;;;;;;;;4995644;28;93542;-71
2022/03/29 09:11:08;;;;;;;46.50;25.40;;;;;;;;;;4996171;28;92366;-72
2022/03/29 09:13:34;;;;;;;45.08;25.60;;;;;;;;;;4995873;28;92877;-73
2022/03/29 09:16:01;;;;;;;42.38;24.05;;;;;;;;;;4995887;28;93047;-71
2022/03/29 09:18:29;;;;;;;39.13;23.63;;;;;;;;;;4996535;28;92004;-73
2022/03/29 09:21:09;;;;;;;43.42;24.95;;;;;;;;;;5001900;28;92660;-72
2022/03/29 09:23:36;;;;;;;43.92;25.25;;;;;;;;;;4999482;28;92310;-72
2022/03/29 09:26:03;;;;;;;41.58;24.58;;;;;;;;;;4997802;28;94738;-73
2022/03/29 09:28:33;;;;;;;39.47;24.75;;;;;;;;;;4999219;28;93501;-72
2022/03/29 09:31:00;;;;;;;43.00;24.20;;;;;;;;;;4999246;28;92272;-73
2022/03/29 09:33:30;;;;;;;46.22;25.67;;;;;;;;;;4998964;28;93409;-71
2022/03/29 09:36:03;;;;;;;47.40;25.73;;;;;;;;;;4999178;28;93431;-71
2022/03/29 09:38:31;;;;;;;45.20;25.95;;;;;;;;;;4999060;28;92322;-72
2022/03/29 09:40:58;;;;;;;48.33;25.45;;;;;;;;;;4999028;28;93561;-73
2022/03/29 09:43:58;;;;;;;42.53;25.27;;;;;;;;;;5001303;28;93472;-72
2022/03/29 09:46:24;;;;;;;39.28;24.60;;;;;;;;;;4998465;28;96381;-73
2022/03/29 09:48:57;;;;;;;45.90;25.08;;;;;;;;;;4997852;28;94444;-74
2022/03/29 09:51:26;;;;;;;45.67;24.58;;;;;;;;;;4997462;28;94626;-74
2022/03/29 09:53:56;;;;;;;45.35;25.95;;;;;;;;;;4998467;28;95933;-72
2022/03/29 09:56:25;;;;;;;38.42;25.20;;;;;;;;;;4997315;28;93071;-74
2022/03/29 09:59:14;;;;;;;45.38;25.05;;;;;;;;;;4998963;28;92530;-72
2022/03/29 10:01:51;;;;;;;43.67;23.23;;;;;;;;;;4998461;28;93658;-75
2022/03/29 10:04:18;;;;;;;37.80;23.92;;;;;;;;;;4998640;28;93400;-74
2022/03/29 10:06:46;;;;;;;32.30;21.80;;;;;;;;;;5001417;28;92379;-73
2022/03/29 10:09:28;;;;;;;36.83;23.15;;;;;;;;;;4999256;28;91513;-74
2022/03/29 10:12:04;;;;;;;37.63;20.90;;;;;;;;;;4998643;28;92382;-73
2022/03/29 10:14:41;;;;;;;38.17;22.20;;;;;;;;;;4998576;28;93027;-72
2022/03/29 10:17:08;;;;;;;35.95;21.42;;;;;;;;;;4996240;28;96400;-75
2022/03/29 10:19:36;;;;;;;40.65;23.25;;;;;;;;;;4998794;28;92335;-73
2022/03/29 10:22:02;;;;;;;35.60;22.90;;;;;;;;;;4998527;28;93589;-73
2022/03/29 10:24:29;;;;;;;35.42;23.50;;;;;;;;;;4998630;28;93617;-72
2022/03/29 10:26:57;;;;;;;39.92;23.48;;;;;;;;;;4998389;28;92327;-73
2022/03/29 10:29:23;;;;;;;38.53;23.73;;;;;;;;;;5001378;28;94542;-73
2022/03/29 10:31:51;;;;;;;37.63;24.00;;;;;;;;;;4997228;28;92424;-73
2022/03/29 10:34:19;;;;;;;49.40;25.13;;;;;;;;;;4999092;28;93643;-74
2022/03/29 10:37:01;;;;;;;42.03;23.33;;;;;;;;;;4998276;28;93635;-73
2022/03/29 10:39:28;;;;;;;;;;;;;;;;;;4998371;28;94408;-72
2022/03/29 10:41:55;;;;;;;40.95;23.05;;;;;;;;;;4996764;28;121257;-73
2022/03/29 10:44:22;;;;;;;39.25;24.40;;;;;;;;;;4997320;28;93821;-72
2022/03/29 10:46:50;;;;;;;39.90;23.27;;;;;;;;;;4997871;28;94214;-72
2022/03/29 10:49:20;;;;;;;36.28;23.77;;;;;;;;;;4998292;28;93444;-73
2022/03/29 10:51:52;;;;;;;38.45;23.45;;;;;;;;;;5016631;28;93629;-73
2022/03/29 10:54:24;;;;;;;39.40;23.85;;;;;;;;;;4998788;28;93500;-73
2022/03/29 10:57:06;;;;;;;40.42;24.90;;;;;;;;;;5003176;28;93547;-73
2022/03/29 10:59:33;;;;;;;43.83;24.02;;;;;;;;;;4998586;28;93389;-73
2022/03/29 11:02:06;;;;;;;41.05;24.00;;;;;;;;;;4997686;28;92798;-74
2022/03/29 11:04:33;;;;;;;34.92;22.77;;;;;;;;;;4997944;28;93020;-70
2022/03/29 11:07:06;;;;;;;37.67;24.10;;;;;;;;;;4996355;28;94706;-70
2022/03/29 11:09:33;;;;;;;38.63;24.40;;;;;;;;;;4997548;28;95152;-71
2022/03/29 11:12:00;;;;;;;35.00;24.05;;;;;;;;;;4997757;28;93050;-73
2022/03/29 11:14:30;;;;;;;36.67;23.55;;;;;;;;;;5000650;28;92398;-73
2022/03/29 11:17:11;;;;;;;39.60;24.40;;;;;;;;;;4997421;28;94150;-72
2022/03/29 11:19:48;;;;;;;34.45;22.70;;;;;;;;;;4997673;28;93332;-73
2022/03/29 11:22:24;;;;;;;36.00;22.60;;;;;;;;;;4997565;28;93313;-73
2022/03/29 11:24:54;;;;;;;35.10;23.30;;;;;;;;;;4998102;28;92676;-73
2022/03/29 11:27:29;;;;;;;31.80;22.48;;;;;;;;;;4997321;28;92141;-72
2022/03/29 11:29:56;;;;;;;31.10;21.67;;;;;;;;;;4997459;28;93303;-73
2022/03/29 11:32:23;;;;;;;32.00;23.00;;;;;;;;;;4995290;28;96105;-72
2022/03/29 11:34:56;;;;;;;36.67;23.30;;;;;;;;;;5000524;28;92367;-73
2022/03/29 11:37:28;;;;;;;35.20;23.35;;;;;;;;;;4997231;28;93849;-73
2022/03/29 11:39:55;;;;;;;30.85;23.00;;;;;;;;;;4997061;28;92177;-71
2022/03/29 11:42:22;;;;;;;31.20;23.35;;;;;;;;;;4997085;28;93476;-74
2022/03/29 11:44:49;;;;;;;31.88;23.40;;;;;;;;;;4995649;28;94677;-74
2022/03/29 11:47:15;;;;;;;32.70;22.95;;;;;;;;;;4997201;28;92282;-73
2022/03/29 11:49:42;;;;;;;35.08;22.70;;;;;;;;;;4996472;28;96090;-72
2022/03/29 11:52:11;;;;;;;33.55;22.55;;;;;;;;;;4996864;28;93639;-74
2022/03/29 11:54:41;;;;;;;31.95;22.33;;;;;;;;;;4997242;28;92306;-74
2022/03/29 11:57:15;;;;;;;34.42;23.42;;;;;;;;;;4998354;28;94626;-74
2022/03/29 11:59:42;;;;;;;33.42;22.33;;;;;;;;;;4996926;28;92234;-74
2022/03/29 12:02:09;;;;;;;39.58;22.25;;;;;;;;;;4996561;28;93726;-74
2022/03/29 12:04:36;;;;;;;36.20;23.40;;;;;;;;;;5012533;28;93555;-73
2022/03/29 12:07:03;;;;;;;31.75;22.55;;;;;;;;;;4997002;28;92274;-74
2022/03/29 12:09:31;;;;;;;30.98;21.00;;;;;;;;;;4997002;28;93369;-74
2022/03/29 12:12:03;;;;;;;26.60;19.70;;;;;;;;;;4996317;28;93633;-73
2022/03/29 12:14:30;;;;;;;27.42;20.05;;;;;;;;;;4997046;28;91570;-74
2022/03/29 12:17:03;;;;;;;33.10;20.85;;;;;;;;;;4996495;28;93763;-73
2022/03/29 12:19:30;;;;;;;32.22;21.48;;;;;;;;;;4999953;28;93397;-74
2022/03/29 12:21:59;;;;;;;25.08;20.40;;;;;;;;;;4995363;28;94639;-76
2022/03/29 12:24:26;;;;;;;28.00;21.45;;;;;;;;;;4996079;28;93717;-74
2022/03/29 12:27:02;;;;;;;30.08;20.98;;;;;;;;;;4996375;28;92259;-75
2022/03/29 12:29:29;;;;;;;23.00;18.77;;;;;;;;;;4996228;28;93409;-74
2022/03/29 12:31:55;;;;;;;26.60;18.88;;;;;;;;;;4996621;28;93737;-71
2022/03/29 12:34:26;;;;;;;24.38;19.90;;;;;;;;;;4996505;28;92287;-71
2022/03/29 12:36:57;;;;;;;26.15;19.80;;;;;;;;;;4996315;28;93500;-71
2022/03/29 12:39:30;;;;;;;25.63;19.00;;;;;;;;;;4996864;28;92855;-72
2022/03/29 12:41:56;;;;;;;22.83;18.15;;;;;;;;;;4999623;28;92319;-73
2022/03/29 12:44:34;;;;;;;30.40;18.48;;;;;;;;;;4996252;28;93489;-74
2022/03/29 12:47:00;;;;;;;29.30;19.23;;;;;;;;;;4994667;28;94820;-70
2022/03/29 12:49:29;;;;;;;27.35;19.33;;;;;;;;;;4995983;28;95809;-71
2022/03/29 12:51:56;;;;;;;31.88;19.20;;;;;;;;;;4996086;28;93946;-73
2022/03/29 12:54:35;;;;;;;36.35;20.50;;;;;;;;;;4995713;28;92267;-72
2022/03/29 12:57:02;;;;;;;26.70;18.98;;;;;;;;;;4996021;28;95617;-74
2022/03/29 12:59:41;;;;;;;25.27;19.63;;;;;;;;;;4996022;28;93702;-74
2022/03/29 13:02:11;;;;;;;30.50;19.48;;;;;;;;;;4997194;28;92360;-72
2022/03/29 13:04:39;;;;;;;24.30;18.70;;;;;;;;;;5003170;28;92817;-73
2022/03/29 13:07:07;;;;;;;27.23;18.80;;;;;;;;;;4996285;28;92313;-73
2022/03/29 13:09:33;;;;;;;25.70;19.10;;;;;;;;;;4996095;28;93446;-73
2022/03/29 13:12:09;;;;;;;25.13;18.10;;;;;;;;;;4993997;28;96417;-73
2022/03/29 13:14:36;;;;;;;23.20;18.13;;;;;;;;;;4995770;28;92324;-72
2022/03/29 13:17:03;;;;;;;20.60;17.85;;;;;;;;;;4996023;28;92725;-72
2022/03/29 13:19:29;;;;;;;26.13;19.20;;;;;;;;;;4995956;28;93448;-73
2022/03/29 13:22:00;;;;;;;26.75;19.38;;;;;;;;;;4995607;28;92369;-73
2022/03/29 13:24:37;;;;;;;27.98;19.65;;;;;;;;;;4998862;28;93532;-73
2022/03/29 13:27:04;;;;;;;27.65;19.58;;;;;;;;;;4995465;28;92468;-72
2022/03/29 13:29:32;;;;;;;28.77;19.55;;;;;;;;;;4996635;28;93109;-73
2022/03/29 13:31:59;;;;;;;34.60;19.42;;;;;;;;;;4995870;28;93654;-73
2022/03/29 13:34:25;;;;;;;28.77;18.15;;;;;;;;;;4995771;28;92347;-73
2022/03/29 13:36:52;;;;;;;24.40;18.85;;;;;;;;;;4994141;28;94652;-72
2022/03/29 13:39:19;;;;;;;31.73;19.50;;;;;;;;;;4995429;28;94038;-73
2022/03/29 13:42:06;;;;;;;32.17;19.17;;;;;;;;;;4995180;28;92307;-73
2022/03/29 13:44:32;;;;;;;18.70;15.82;;;;;;;;;;4995575;28;93416;-72
2022/03/29 13:46:59;;;;;;;20.73;15.60;;;;;;;;;;5013689;28;93175;-72
2022/03/29 13:49:27;;;;;;;22.80;17.88;;;;;;;;;;4995239;28;93588;-70
2022/03/29 13:51:55;;;;;;;25.23;15.88;;;;;;;;;;4995117;28;93485;-73
2022/03/29 13:54:22;;;;;;;22.52;16.83;;;;;;;;;;4995436;28;91618;-73
2022/03/29 13:56:48;;;;;;;24.98;16.52;;;;;;;;;;4995703;28;92763;-73
2022/03/29 13:59:21;;;;;;;27.08;16.33;;;;;;;;;;4995202;28;94439;-70
2022/03/29 14:01:47;;;;;;;26.95;16.88;;;;;;;;;;4994430;28;94736;-71
2022/03/29 14:04:14;;;;;;;28.23;17.40;;;;;;;;;;4995542;28;95862;-69
2022/03/29 14:06:40;;;;;;;23.85;16.08;;;;;;;;;;4995602;28;94056;-69
2022/03/29 14:09:07;;;;;;;25.80;16.92;;;;;;;;;;5001238;28;92390;-72
2022/03/29 14:11:33;;;;;;;21.85;16.00;;;;;;;;;;4998015;28;93845;-73
2022/03/29 14:14:00;;;;;;;23.23;16.23;;;;;;;;;;4998027;28;92370;-70
2022/03/29 14:16:26;;;;;;;31.08;16.98;;;;;;;;;;4998161;28;93894;-74
2022/03/29 14:18:53;;;;;;;23.77;15.40;;;;;;;;;;4998560;28;93441;-74
2022/03/29 14:21:20;;;;;;;22.98;15.00;;;;;;;;;;4997439;28;92297;-74
2022/03/29 14:23:46;;;;;;;21.52;14.43;;;;;;;;;;4997907;28;93545;-74
2022/03/29 14:26:13;;;;;;;24.38;15.45;;;;;;;;;;4996242;28;95631;-73
2022/03/29 14:28:39;;;;;;;24.52;16.20;;;;;;;;;;4997949;28;93044;-75
2022/03/29 14:31:05;;;;;;;26.05;16.08;;;;;;;;;;5000848;28;92384;-74